createdAt,value
2019-04-28T00:03:03.873Z,94.20
2019-04-28T00:09:05.927Z,94.00
2019-04-28T00:15:08.404Z,94.00
2019-04-28T00:21:18.011Z,93.80
2019-04-28T00:27:21.509Z,93.80
2019-04-28T00:33:23.117Z,93.90
2019-04-28T00:39:24.721Z,93.90
2019-04-28T00:45:26.270Z,93.80
2019-04-28T00:51:31.354Z,93.80
2019-04-28T00:57:34.220Z,93.60
2019-04-28T01:03:35.798Z,93.60
2019-04-28T01:09:37.272Z,93.70
2019-04-28T01:15:40.648Z,93.80
2019-04-28T01:22:00.688Z,94.30
2019-04-28T01:28:02.490Z,94.50
2019-04-28T01:34:15.042Z,94.80
2019-04-28T01:40:16.705Z,94.90
2019-04-28T01:46:19.808Z,95.00
2019-04-28T01:52:21.525Z,94.80
2019-04-28T01:58:22.993Z,94.70
2019-04-28T02:04:25.794Z,94.80
2019-04-28T02:10:30.287Z,94.90
2019-04-28T02:16:31.733Z,94.90
2019-04-28T02:22:35.225Z,94.70
2019-04-28T02:28:36.706Z,94.80
2019-04-28T02:34:40.725Z,95.00
2019-04-28T02:40:41.479Z,94.90
2019-04-28T02:46:43.444Z,94.90
2019-04-28T02:53:03.146Z,95.10
2019-04-28T02:59:05.144Z,95.20
2019-04-28T03:05:08.193Z,95.50
2019-04-28T03:11:11.150Z,95.50
2019-04-28T03:17:12.742Z,95.60
2019-04-28T03:23:14.459Z,95.60
2019-04-28T03:29:35.968Z,95.60
2019-04-28T03:35:37.469Z,95.50
2019-04-28T03:41:40.589Z,95.50
2019-04-28T03:47:42.237Z,95.40
2019-04-28T03:53:43.669Z,95.50
2019-04-28T03:59:45.114Z,95.50
2019-04-28T04:05:46.730Z,95.40
2019-04-28T04:12:06.244Z,95.60
2019-04-28T04:18:12.544Z,95.60
2019-04-28T04:24:13.988Z,95.70
2019-04-28T04:30:15.423Z,95.40
2019-04-28T04:36:16.972Z,95.30
2019-04-28T04:42:20.422Z,95.30
2019-04-28T04:48:21.813Z,95.30
2019-04-28T04:54:23.194Z,95.40
2019-04-28T05:00:30.642Z,95.50
2019-04-28T05:06:41.541Z,95.50
2019-04-28T05:12:43.235Z,95.20
2019-04-28T05:18:44.746Z,95.00
2019-04-28T05:24:51.177Z,94.90
2019-04-28T05:30:51.345Z,94.80
2019-04-28T05:36:52.828Z,94.60
2019-04-28T05:43:00.789Z,94.70
2019-04-28T05:49:07.200Z,94.00
2019-04-28T05:55:20.430Z,93.00
2019-04-28T06:01:30.482Z,92.80
2019-04-28T06:07:36.693Z,93.40
2019-04-28T06:13:40.072Z,92.90
2019-04-28T06:19:41.699Z,92.90
2019-04-28T06:25:43.218Z,92.90
2019-04-28T06:31:44.610Z,92.70
2019-04-28T06:37:46.106Z,92.40
2019-04-28T06:43:48.581Z,92.60
2019-04-28T06:49:50.274Z,92.00
2019-04-28T06:55:51.752Z,91.80
2019-04-28T07:01:53.297Z,90.80
2019-04-28T07:07:54.782Z,90.50
2019-04-28T07:13:56.321Z,90.40
2019-04-28T07:19:59.693Z,90.00
2019-04-28T07:26:01.277Z,88.20
2019-04-28T07:32:03.434Z,86.40
2019-04-28T07:38:05.110Z,83.10
2019-04-28T07:44:06.791Z,85.40
2019-04-28T07:50:08.569Z,84.10
2019-04-28T07:56:10.407Z,80.70
2019-04-28T08:02:11.959Z,80.00
2019-04-28T08:08:13.625Z,74.50
2019-04-28T08:14:15.229Z,73.20
2019-04-28T08:20:16.884Z,67.40
2019-04-28T08:26:18.470Z,71.00
2019-04-28T08:32:24.601Z,72.30
2019-04-28T08:38:26.120Z,75.00
2019-04-28T08:44:27.651Z,78.00
2019-04-28T08:50:29.134Z,75.10
2019-04-28T08:56:30.616Z,70.70
2019-04-28T09:02:32.058Z,66.70
2019-04-28T09:08:33.737Z,70.00
2019-04-28T09:14:35.284Z,67.20
2019-04-28T09:20:37.013Z,61.90
2019-04-28T09:26:38.417Z,62.50
2019-04-28T09:32:39.957Z,63.00
2019-04-28T09:38:41.469Z,66.80
2019-04-28T09:44:43.038Z,65.70
2019-04-28T09:50:44.496Z,67.20
2019-04-28T09:56:56.048Z,75.30
2019-04-28T10:02:49.591Z,74.30
2019-04-28T10:08:51.331Z,73.40
2019-04-28T10:14:52.803Z,74.60
2019-04-28T10:20:54.513Z,76.90
2019-04-28T10:26:57.000Z,73.60
2019-04-28T10:32:58.716Z,72.00
2019-04-28T10:39:18.733Z,70.50
2019-04-28T10:45:22.126Z,69.60
2019-04-28T10:51:23.683Z,67.40
2019-04-28T10:57:25.134Z,67.10
2019-04-28T11:03:26.583Z,64.60
2019-04-28T11:10:06.296Z,61.80
2019-04-28T11:15:44.008Z,65.90
2019-04-28T11:21:47.598Z,68.30
2019-04-28T11:27:49.256Z,67.60
2019-04-28T11:34:06.265Z,71.40
2019-04-28T11:40:08.085Z,71.40
2019-04-28T11:46:15.454Z,69.80
2019-04-28T11:52:16.920Z,66.20
2019-04-28T11:58:19.384Z,63.10
2019-04-28T12:04:22.967Z,65.20
2019-04-28T12:10:28.350Z,64.20
2019-04-28T12:16:46.708Z,58.00
2019-04-28T12:22:53.746Z,58.30
2019-04-28T12:28:56.482Z,58.60
2019-04-28T12:35:00.440Z,59.00
2019-04-28T12:41:02.299Z,57.10
2019-04-28T12:47:04.031Z,59.40
2019-04-28T12:53:05.712Z,57.20
2019-04-28T12:59:12.049Z,55.30
2019-04-28T13:05:15.499Z,60.70
2019-04-28T13:11:17.198Z,58.10
2019-04-28T13:17:20.733Z,59.10
2019-04-28T13:23:22.404Z,55.00
2019-04-28T13:29:23.875Z,55.70
2019-04-28T13:35:25.443Z,58.30
2019-04-28T13:41:26.930Z,61.10
2019-04-28T13:47:28.740Z,63.10
2019-04-28T13:53:30.462Z,63.40
2019-04-28T13:59:32.022Z,63.40
2019-04-28T14:05:44.270Z,62.90
2019-04-28T14:11:46.097Z,61.50
2019-04-28T14:17:47.578Z,61.60
2019-04-28T14:23:49.240Z,57.70
2019-04-28T14:29:50.741Z,57.90
2019-04-28T14:35:52.333Z,56.50
2019-04-28T14:41:55.358Z,53.00
2019-04-28T14:47:57.999Z,53.10
2019-04-28T14:53:59.656Z,53.90
2019-04-28T15:00:01.287Z,52.20
2019-04-28T15:12:28.147Z,54.10
2019-04-28T15:18:29.595Z,49.70
2019-04-28T15:24:31.048Z,49.10
2019-04-28T15:30:32.742Z,50.50
2019-04-28T15:36:35.003Z,51.00
2019-04-28T15:56:06.623Z,53.00
2019-04-28T16:02:11.052Z,50.40
2019-04-28T16:08:16.950Z,51.70
2019-04-28T16:14:19.335Z,52.20
2019-04-28T16:27:13.815Z,56.20
2019-04-28T16:33:18.126Z,58.30
2019-04-28T16:39:19.665Z,59.60
2019-04-28T16:45:21.339Z,58.30
2019-04-28T16:51:22.794Z,54.70
2019-04-28T16:57:31.977Z,51.70
2019-04-28T17:03:35.396Z,50.80
2019-04-28T17:09:36.924Z,48.30
2019-04-28T17:15:38.422Z,44.60
2019-04-28T17:21:40.062Z,44.60
2019-04-28T17:27:41.626Z,44.50
2019-04-28T17:33:43.537Z,45.70
2019-04-28T17:39:45.086Z,48.70
2019-04-28T17:45:46.834Z,51.60
2019-04-28T17:51:49.018Z,51.90
2019-04-28T17:57:50.551Z,50.00
2019-04-28T18:04:00.007Z,53.10
2019-04-28T18:10:03.237Z,56.20
2019-04-28T18:16:23.343Z,61.30
2019-04-28T18:22:24.960Z,68.80
2019-04-28T18:28:26.629Z,76.30
2019-04-28T18:34:46.351Z,80.40
2019-04-28T18:41:02.062Z,83.30
2019-04-28T18:47:03.733Z,86.00
2019-04-28T18:53:05.394Z,87.30
2019-04-28T18:59:07.029Z,88.40
2019-04-28T19:05:10.532Z,90.10
2019-04-28T19:11:22.785Z,90.80
2019-04-28T19:17:41.293Z,91.10
2019-04-28T19:23:43.185Z,91.20
2019-04-28T19:29:45.631Z,91.90
2019-04-28T19:35:47.072Z,91.80
2019-04-28T19:41:48.836Z,92.00
2019-04-28T19:47:50.457Z,92.50
2019-04-28T19:53:52.093Z,92.60
2019-04-28T20:00:12.085Z,93.10
2019-04-28T20:06:16.637Z,93.30
2019-04-28T20:12:19.395Z,94.00
2019-04-28T20:18:21.072Z,93.90
2019-04-28T20:24:23.651Z,94.00
2019-04-28T20:30:25.262Z,93.70
2019-04-28T20:36:28.782Z,93.70
2019-04-28T20:42:51.438Z,93.80
2019-04-28T20:48:54.021Z,94.40
2019-04-28T20:54:58.333Z,94.50
2019-04-28T21:01:00.121Z,94.70
2019-04-28T21:07:01.694Z,94.30
2019-04-28T21:13:04.789Z,94.70
2019-04-28T21:19:06.294Z,95.40
2019-04-28T21:25:11.769Z,95.40
2019-04-28T21:31:20.161Z,95.40
2019-04-28T21:37:23.484Z,95.20
2019-04-28T21:43:32.776Z,95.50
2019-04-28T21:49:36.270Z,95.30
2019-04-28T21:55:37.847Z,95.60
2019-04-28T22:01:39.397Z,95.70
2019-04-28T22:07:41.036Z,95.80
2019-04-28T22:13:42.619Z,95.90
2019-04-28T22:19:44.316Z,95.90
2019-04-28T22:25:45.776Z,96.00
2019-04-28T22:31:47.797Z,95.90
2019-04-28T22:37:49.624Z,95.80
2019-04-28T22:43:51.289Z,96.10
2019-04-28T22:49:53.318Z,96.20
2019-04-28T22:55:56.904Z,96.20
2019-04-28T23:02:03.499Z,96.20
2019-04-28T23:08:05.288Z,96.20
2019-04-28T23:14:06.937Z,96.30
2019-04-28T23:20:11.503Z,96.50
2019-04-28T23:26:13.214Z,96.90
2019-04-28T23:32:15.137Z,96.50
2019-04-28T23:38:16.747Z,96.90
2019-04-28T23:44:18.308Z,96.90
2019-04-28T23:50:21.816Z,96.90
2019-04-28T23:56:23.298Z,96.90
